createdAt,value
2022-09-20T09:17:04.750Z,18.50
2022-09-20T16:43:08.937Z,18.80
2022-09-20T16:45:38.460Z,18.90
2022-09-20T16:48:08.612Z,19.00
2022-09-20T16:50:36.869Z,19.00
2022-09-20T16:53:07.869Z,19.00
2022-09-20T16:55:37.214Z,19.00
2022-09-20T16:58:05.087Z,19.00
2022-09-20T17:00:34.209Z,18.90
2022-09-20T17:03:02.247Z,18.80
2022-09-20T17:05:30.201Z,18.70
2022-09-20T17:07:58.410Z,18.70
2022-09-20T17:10:28.578Z,18.60
2022-09-20T17:13:01.044Z,18.50
2022-09-20T17:15:28.953Z,18.50
2022-09-20T17:17:57.832Z,18.50
2022-09-20T17:20:27.262Z,18.40
2022-09-20T17:22:55.950Z,18.40
2022-09-20T17:25:26.396Z,18.30
2022-09-20T17:27:54.256Z,18.30
2022-09-20T17:30:23.422Z,18.10
2022-09-20T17:32:54.098Z,18.00
2022-09-20T17:35:22.097Z,18.00
2022-09-20T17:37:51.041Z,17.90
2022-09-20T17:40:21.703Z,17.90
2022-09-20T17:42:49.614Z,17.80
2022-09-20T17:45:19.969Z,17.70
2022-09-20T17:47:49.275Z,17.60
2022-09-20T17:50:17.307Z,17.50
2022-09-20T17:52:46.735Z,17.40
2022-09-20T17:55:14.684Z,17.30
2022-09-20T17:57:42.743Z,17.20
2022-09-20T18:00:11.861Z,17.00
2022-09-20T18:02:39.801Z,16.90
2022-09-20T18:05:17.984Z,16.80
2022-09-20T18:07:46.040Z,16.70
2022-09-20T18:10:16.382Z,16.60
2022-09-20T18:12:44.469Z,16.50
2022-09-20T18:15:12.477Z,16.40
2022-09-20T18:17:40.588Z,16.30
2022-09-20T18:20:10.496Z,16.20
2022-09-20T18:22:40.393Z,16.10
2022-09-20T18:25:08.704Z,16.00
2022-09-20T18:27:38.255Z,16.00
2022-09-20T18:30:07.056Z,15.90
2022-09-20T18:32:34.953Z,15.90
2022-09-20T18:35:02.820Z,15.90
2022-09-20T18:37:31.751Z,15.90
2022-09-20T18:40:04.254Z,15.90
2022-09-20T18:42:32.825Z,15.90
2022-09-20T18:45:00.694Z,15.80
2022-09-20T18:47:28.915Z,15.80
2022-09-20T18:50:01.237Z,15.90
2022-09-20T18:52:29.793Z,15.90
2022-09-20T18:55:02.597Z,15.90
2022-09-20T18:57:32.375Z,15.90
2022-09-20T19:00:03.810Z,16.00
2022-09-20T19:02:38.479Z,16.00
2022-09-20T19:05:09.982Z,16.00
2022-09-20T19:07:46.656Z,16.10
2022-09-20T19:10:19.731Z,16.10
2022-09-20T19:12:52.193Z,16.20
2022-09-20T19:15:24.402Z,16.20
2022-09-20T19:18:01.343Z,16.20
2022-09-20T19:20:34.432Z,16.10
2022-09-20T19:23:07.909Z,16.10
2022-09-20T19:25:40.852Z,16.10
2022-09-20T19:28:12.661Z,16.00
2022-09-20T19:30:42.686Z,15.80
2022-09-20T19:33:16.066Z,15.70
2022-09-20T19:35:49.368Z,15.80
2022-09-20T19:38:25.888Z,15.80
2022-09-20T19:40:59.639Z,15.90
2022-09-20T19:43:37.828Z,15.90
2022-09-20T19:46:14.808Z,15.90
2022-09-20T19:48:49.195Z,16.00
2022-09-20T19:51:19.736Z,16.00
2022-09-20T19:53:48.191Z,16.00
2022-09-20T19:56:21.710Z,16.00
2022-09-20T19:58:53.078Z,16.00
2022-09-20T20:01:22.360Z,16.00
2022-09-20T20:03:50.647Z,16.00
2022-09-20T20:06:22.235Z,16.00
2022-09-20T20:08:56.449Z,16.00
2022-09-20T20:11:36.384Z,16.00
2022-09-20T20:14:13.614Z,16.00
2022-09-20T20:16:46.901Z,16.00
2022-09-20T20:19:26.092Z,16.00
2022-09-20T20:21:56.410Z,16.00
2022-09-20T20:24:27.474Z,16.00
2022-09-20T20:26:59.641Z,15.90
2022-09-20T20:29:29.319Z,15.90
2022-09-20T20:31:57.468Z,15.90
2022-09-20T20:34:26.669Z,15.90
2022-09-20T20:37:00.340Z,15.80
2022-09-20T20:39:32.209Z,15.80
2022-09-20T20:42:02.517Z,15.80
2022-09-20T20:44:32.729Z,15.80
2022-09-20T20:47:00.542Z,15.70
2022-09-20T20:49:28.604Z,15.60
2022-09-20T20:51:59.691Z,15.50
2022-09-20T20:54:27.604Z,15.50
2022-09-20T20:56:55.490Z,15.40
2022-09-20T20:59:24.706Z,15.30
2022-09-20T21:01:56.301Z,15.30
2022-09-20T21:04:25.475Z,15.30
2022-09-20T21:06:55.737Z,15.30
2022-09-20T21:09:23.652Z,15.20
2022-09-20T21:11:51.524Z,15.20
2022-09-20T21:14:24.900Z,15.10
2022-09-20T21:16:54.183Z,15.00
2022-09-20T21:19:23.928Z,15.00
2022-09-20T21:21:51.874Z,14.90
2022-09-20T21:24:19.796Z,14.90
2022-09-20T21:26:48.486Z,14.80
2022-09-20T21:29:17.103Z,14.70
2022-09-20T21:31:46.580Z,14.70
2022-09-20T21:34:16.661Z,14.60
2022-09-20T21:36:45.157Z,14.50
2022-09-20T21:41:56.036Z,14.30
2022-09-20T21:44:24.295Z,14.30
2022-09-20T21:46:52.025Z,14.20
2022-09-20T21:49:21.298Z,14.20
2022-09-20T21:51:52.027Z,14.10
2022-09-20T21:54:19.875Z,14.10
2022-09-20T21:56:49.873Z,14.00
2022-09-20T21:59:18.510Z,14.00
2022-09-20T22:01:47.213Z,13.90
2022-09-20T22:04:15.143Z,13.90
2022-09-20T22:06:45.038Z,13.90
2022-09-20T22:09:13.848Z,14.00
2022-09-20T22:11:42.244Z,13.90
2022-09-20T22:14:10.644Z,13.90
2022-09-20T22:16:39.750Z,13.90
2022-09-20T22:19:08.525Z,13.90
2022-09-20T22:21:37.049Z,13.80
2022-09-20T22:24:07.776Z,13.70
2022-09-20T22:26:36.965Z,13.70
2022-09-20T22:29:05.325Z,13.60
2022-09-20T22:31:33.858Z,13.60
2022-09-20T22:34:08.381Z,13.60
2022-09-20T22:36:38.195Z,13.50
2022-09-20T22:39:08.529Z,13.50
2022-09-20T22:41:40.944Z,13.40
2022-09-20T22:44:09.037Z,13.30
2022-09-20T22:46:37.092Z,13.30
2022-09-20T22:49:05.682Z,13.20
2022-09-20T22:51:34.268Z,13.20
2022-09-20T22:54:05.667Z,13.10
2022-09-20T22:56:35.022Z,13.10
2022-09-20T22:59:05.543Z,13.00
2022-09-20T23:01:34.439Z,13.00
2022-09-20T23:04:04.296Z,12.90
